»·PEaware :: N520MP KMRY-KSNA

N520MP :: KMRY-KSNA

FLIGHT INFORMATION

Flight Status: Arrived
Operator: Privately registered:
United States
More flights under this callsign
Pilot: Manuel P. (9695)
Aircraft: CANADAIR CL-600 CRJ-200
(CRJ2)
More flights by this aircraft type
Origin: KMRY Monterey Peninsula
United States
Destination: KSNA John Wayne-Orange Co
United States
More flights between these airports :: More routes between these airports
Route: +MRY4 BSR MCKEY DAISY BENET SXC
File this flight plan on PilotEdge
Remarks:
Altitude:
(Current/Filed)
35,000ft
Speed:
(Current/Filed)
400kts
Departed: 17-Aug-17 02:45 PM
Arrived: 17-Aug-17 03:41 PM
Distance/Time
Traveled:
262nm/0:56
Distance/Time
To Go:
Arrived

Flight Plot

Page will automatically refresh every two minutes.

Flight plan parsing failed; only flown route is shown


Map Options




Map Legend


Flown Route
Filed Route
Departure Airport
Arrival Airport
Navaid (VOR, NDB)
Fix

Horizontal Profiles

Position Reports

Time Latitude Longitude Heading Altitude Ground
Speed
17-Aug-17 14:31 36.588530 -121.856645 345 261ft 0kts
17-Aug-17 14:32 36.588530 -121.856645 345 261ft 0kts
17-Aug-17 14:33 36.588530 -121.856645 345 261ft 0kts
17-Aug-17 14:34 36.588530 -121.856645 345 261ft 0kts
17-Aug-17 14:35 36.588530 -121.856645 345 261ft 0kts
17-Aug-17 14:36 36.588530 -121.856645 345 261ft 0kts
17-Aug-17 14:37 36.588530 -121.856645 344 261ft 0kts
17-Aug-17 14:38 36.588530 -121.856645 344 261ft 0kts
17-Aug-17 14:39 36.588530 -121.856645 344 261ft 0kts
17-Aug-17 14:40 36.588530 -121.856645 344 261ft 0kts
17-Aug-17 14:41 36.588530 -121.856645 344 261ft 0kts
17-Aug-17 14:42 36.588530 -121.856645 344 261ft 0kts
17-Aug-17 14:43 36.589200 -121.856037 60 261ft 7kts
17-Aug-17 14:44 36.589256 -121.853609 110 261ft 6kts
17-Aug-17 14:45 36.587899 -121.849652 112 261ft 21kts
17-Aug-17 14:46 36.586282 -121.845207 112 261ft 14kts
17-Aug-17 14:47 36.583766 -121.837729 113 261ft 25kts
17-Aug-17 14:48 36.582839 -121.834636 93 261ft 8kts
17-Aug-17 14:49 36.588117 -121.847620 292 261ft 160kts
17-Aug-17 14:50 36.623122 -121.908732 341 2354ft 264kts
17-Aug-17 14:51 36.687678 -121.933225 341 4321ft 226kts
17-Aug-17 14:52 36.700307 -121.998975 222 5725ft 247kts
17-Aug-17 14:53 36.641642 -121.975495 122 7402ft 290kts
17-Aug-17 14:54 36.577984 -121.914184 147 11274ft 315kts
17-Aug-17 14:55 36.494880 -121.855772 149 13979ft 356kts
17-Aug-17 14:56 36.402645 -121.792672 149 16439ft 394kts
17-Aug-17 14:57 36.305628 -121.726575 149 19002ft 402kts
17-Aug-17 14:58 36.204199 -121.657638 149 19055ft 437kts
17-Aug-17 14:59 36.100941 -121.577169 145 19064ft 431kts
17-Aug-17 15:00 36.007086 -121.501558 144 19672ft 385kts
17-Aug-17 15:01 35.918011 -121.429942 144 22087ft 389kts
17-Aug-17 15:02 35.826114 -121.356274 144 23836ft 405kts
17-Aug-17 15:03 35.731008 -121.280249 145 25462ft 417kts
17-Aug-17 15:04 35.632376 -121.201642 145 27240ft 428kts
17-Aug-17 15:05 35.533541 -121.123122 145 29829ft 427kts
17-Aug-17 15:06 35.436840 -121.046142 147 33025ft 406kts
17-Aug-17 15:07 35.339749 -120.970093 147 34517ft 423kts
17-Aug-17 15:08 35.237604 -120.889440 146 35063ft 462kts
17-Aug-17 15:09 35.125019 -120.801019 146 35057ft 497kts
17-Aug-17 15:10 35.010722 -120.711607 146 35052ft 505kts
17-Aug-17 15:11 34.892730 -120.619612 146 35050ft 507kts
17-Aug-17 15:12 34.775440 -120.528392 148 35047ft 498kts
17-Aug-17 15:13 34.658468 -120.437930 148 33902ft 504kts
17-Aug-17 15:14 34.540555 -120.347026 148 32868ft 503kts
17-Aug-17 15:15 34.422369 -120.256031 149 31150ft 511kts
17-Aug-17 15:16 34.303991 -120.165293 148 29314ft 498kts
17-Aug-17 15:16 34.223621 -120.073402 113 26896ft 478kts
17-Aug-17 15:18 34.150140 -119.915269 121 24025ft 451kts
17-Aug-17 15:19 34.088415 -119.793617 122 22771ft 386kts
17-Aug-17 15:20 34.035412 -119.690024 122 19326ft 375kts
17-Aug-17 15:20 33.989898 -119.601064 121 16771ft 371kts
17-Aug-17 15:21 33.936316 -119.496533 121 14430ft 363kts
17-Aug-17 15:22 33.884887 -119.396573 120 12379ft 351kts
17-Aug-17 15:23 33.837331 -119.304246 120 10956ft 339kts
17-Aug-17 15:24 33.789354 -119.211454 120 10955ft 320kts
17-Aug-17 15:25 33.743356 -119.122741 120 10962ft 310kts
17-Aug-17 15:26 33.695868 -119.031317 121 10959ft 334kts
17-Aug-17 15:27 33.645530 -118.934702 121 10940ft 349kts
17-Aug-17 15:28 33.593457 -118.835028 121 10940ft 358kts
17-Aug-17 15:29 33.583059 -118.729079 81 9662ft 329kts
17-Aug-17 15:30 33.595143 -118.632042 81 7188ft 276kts
17-Aug-17 15:31 33.605906 -118.548418 81 6948ft 266kts
17-Aug-17 15:32 33.617523 -118.458043 81 6932ft 281kts
17-Aug-17 15:33 33.629820 -118.363063 81 5884ft 297kts
17-Aug-17 15:34 33.641892 -118.269707 81 4977ft 266kts
17-Aug-17 15:35 33.652628 -118.188109 81 4983ft 236kts
17-Aug-17 15:36 33.662943 -118.109979 81 4993ft 242kts
17-Aug-17 15:37 33.673847 -118.034345 79 4578ft 213kts
17-Aug-17 15:38 33.681051 -117.963890 80 3161ft 219kts
17-Aug-17 15:39 33.719979 -117.917338 26 2471ft 184kts
17-Aug-17 15:40 33.762001 -117.886745 61 1850ft 157kts
17-Aug-17 15:41 33.747561 -117.849263 167 1596ft 134kts
17-Aug-17 15:42 33.710204 -117.849515 196 841ft 137kts
17-Aug-17 15:43 33.679291 -117.866538 207 62ft 106kts
17-Aug-17 15:44 33.670721 -117.872002 206 61ft 18kts
17-Aug-17 15:45 33.669089 -117.871378 108 61ft 8kts
17-Aug-17 15:46 33.671052 -117.869001 40 61ft 15kts
17-Aug-17 15:47 33.672279 -117.867316 154 61ft 1kts
17-Aug-17 15:48 33.672060 -117.867441 213 61ft 0kts
17-Aug-17 15:50 33.672060 -117.867441 213 61ft 0kts

Navigation Log

Ident Type
Flight plan parsing failed, navigation log unavailable